Endville, Mississippi
Current Conditions -  °F | °C
As of 11:53 AM on Saturday 20 Dec 2014 (Local Time) from KTUP Reporting Station
Clear Clear  
Wind Chill: 46°   Ceiling: Unl
Heat Index: 49°   Visibility: 10mi
Dew Point: 32°   Wind: 7mph
Humidity: 52%   Direction: 100°E
Pressure: 30.24"   Gusts: NA
Location:  34.4333°N, 88.8629°W
Report Text: KTUP 201753Z 10006KT 10SM CLR 09/00 A3024 RMK AO2 SLP239 T00940000 10100 20000 58013
Loading
Personal Weather Stations






























Interactive Weather Map New forecast layout! Learn more

10-Day Weather Forecast

Advertisements
Track Severe Weather on mobile